createdAt,value
2022-12-05T00:00:24.365Z,-1
2022-12-05T00:01:24.377Z,-0.83
2022-12-05T00:02:24.425Z,-1.28
2022-12-05T00:03:24.364Z,-1
2022-12-05T00:04:24.448Z,-1.44
2022-12-05T00:05:24.378Z,-1.28
2022-12-05T00:06:24.383Z,-1.44
2022-12-05T00:07:24.380Z,-1.56
2022-12-05T00:08:24.388Z,-1.67
2022-12-05T00:09:24.409Z,-1.44
2022-12-05T00:10:24.371Z,-1.44
2022-12-05T00:11:24.376Z,-1.56
2022-12-05T00:12:24.383Z,-1.11
2022-12-05T00:13:24.380Z,-1.11
2022-12-05T00:14:24.379Z,-1
2022-12-05T00:15:24.373Z,-1.11
2022-12-05T00:16:24.403Z,-1.11
2022-12-05T00:17:24.382Z,-1.44
2022-12-05T00:18:24.381Z,-1.28
2022-12-05T00:19:24.383Z,-1.83
2022-12-05T00:20:24.385Z,-1.67
2022-12-05T00:21:24.390Z,-1.67
2022-12-05T00:22:24.376Z,-2
2022-12-05T00:23:24.379Z,-1.44
2022-12-05T00:24:24.392Z,-1.28
2022-12-05T00:25:24.421Z,-1.44
2022-12-05T00:26:24.387Z,-1
2022-12-05T00:27:24.390Z,-1.11
2022-12-05T00:28:24.394Z,-1.28
2022-12-05T00:29:24.386Z,-0.83
2022-12-05T00:30:24.387Z,-1.56
2022-12-05T00:31:24.448Z,-1.11
2022-12-05T00:32:24.455Z,-1.44
2022-12-05T00:33:24.402Z,-1.28
2022-12-05T00:34:24.407Z,-0.83
2022-12-05T00:35:24.397Z,-0.83
2022-12-05T00:36:24.409Z,-1
2022-12-05T00:37:24.402Z,-1.28
2022-12-05T00:38:24.409Z,-1.28
2022-12-05T00:39:24.399Z,-1.44
2022-12-05T00:40:24.403Z,-1.28
2022-12-05T00:41:24.431Z,-1.28
2022-12-05T00:42:24.398Z,-1.28
2022-12-05T00:43:24.400Z,-1.28
2022-12-05T00:44:24.404Z,-0.83
2022-12-05T00:45:24.407Z,-0.83
2022-12-05T00:46:24.480Z,-0.67
2022-12-05T00:47:24.407Z,-0.39
2022-12-05T00:48:24.404Z,-0.28
2022-12-05T00:49:24.414Z,-0.39
2022-12-05T00:50:24.411Z,-0.39
2022-12-05T00:51:24.432Z,-0.28
2022-12-05T00:52:24.420Z,-0.39
2022-12-05T00:53:24.415Z,-1.11
2022-12-05T00:54:24.422Z,-1.28
2022-12-05T00:55:24.426Z,-2
2022-12-05T00:56:24.421Z,-1.83
2022-12-05T00:57:24.457Z,-2.17
2022-12-05T00:58:24.423Z,-2.28
2022-12-05T00:59:24.436Z,-2.28
2022-12-05T01:00:24.436Z,-2.17
2022-12-05T01:01:24.497Z,-1.67
2022-12-05T01:02:24.438Z,-1.28
2022-12-05T01:03:24.500Z,-1.28
2022-12-05T01:04:24.424Z,-1.44
2022-12-05T01:05:24.445Z,-1.44
2022-12-05T01:06:24.431Z,-1.28
2022-12-05T01:07:24.443Z,-1
2022-12-05T01:08:24.435Z,-0.83
2022-12-05T01:09:24.440Z,-1.11
2022-12-05T01:10:24.451Z,-1.28
2022-12-05T01:11:24.441Z,-1.44
2022-12-05T01:12:24.439Z,-1.56
2022-12-05T01:13:24.470Z,-1.44
2022-12-05T01:14:24.452Z,-1.28
2022-12-05T01:15:24.448Z,-1.56
2022-12-05T01:16:24.493Z,-1.28
2022-12-05T01:17:24.451Z,-1.28
2022-12-05T01:18:24.456Z,-1.56
2022-12-05T01:19:24.455Z,-1.67
2022-12-05T01:20:24.453Z,-1.67
2022-12-05T01:21:24.462Z,-1.11
2022-12-05T01:22:24.465Z,-1.28
2022-12-05T01:23:24.454Z,-1.56
2022-12-05T01:24:24.462Z,-1.44
2022-12-05T01:25:24.467Z,-1.28
2022-12-05T01:26:24.453Z,-1
2022-12-05T01:27:24.464Z,-1.44
2022-12-05T01:28:24.494Z,-0.83
2022-12-05T01:29:24.491Z,-1
2022-12-05T01:30:24.466Z,-1.28
2022-12-05T01:31:24.585Z,-1.83
2022-12-05T01:32:24.501Z,-1.67
2022-12-05T01:33:24.468Z,-1.67
2022-12-05T01:34:24.467Z,-1.83
2022-12-05T01:35:24.468Z,-1.67
2022-12-05T01:36:24.480Z,-2
2022-12-05T01:37:24.522Z,-2
2022-12-05T01:38:24.470Z,-2.28
2022-12-05T01:39:24.467Z,-2.17
2022-12-05T01:40:24.477Z,-1.83
2022-12-05T01:41:24.478Z,-1.67
2022-12-05T01:42:26.255Z,-1.83
2022-12-05T01:43:24.498Z,-1.83
2022-12-05T01:44:24.482Z,-1.67
2022-12-05T01:45:24.512Z,-1.67
2022-12-05T01:46:24.538Z,-1.83
2022-12-05T01:47:24.491Z,-1.83
2022-12-05T01:48:24.484Z,-1.83
2022-12-05T01:49:24.491Z,-1.67
2022-12-05T01:50:24.506Z,-1.28
2022-12-05T01:51:24.492Z,-1.44
2022-12-05T01:52:24.492Z,-1.28
2022-12-05T01:53:24.489Z,-1.56
2022-12-05T01:54:24.508Z,-1.44
2022-12-05T01:55:24.502Z,-1.67
2022-12-05T01:56:24.524Z,-1.83
2022-12-05T01:57:24.497Z,-1.44
2022-12-05T01:58:24.503Z,-1.56
2022-12-05T01:59:24.506Z,-1.67
2022-12-05T02:00:24.504Z,-1.56
2022-12-05T02:01:24.682Z,-1.56
2022-12-05T02:02:24.585Z,-1.44
2022-12-05T02:03:24.503Z,-1.67
2022-12-05T02:04:24.511Z,-1.67
2022-12-05T02:05:24.510Z,-1.44
2022-12-05T02:06:24.507Z,-1.28
2022-12-05T02:07:24.498Z,-1.44
2022-12-05T02:08:24.550Z,-1.11
2022-12-05T02:09:24.509Z,-1.11
2022-12-05T02:10:24.514Z,-1.28
2022-12-05T02:11:24.511Z,-1.56
2022-12-05T02:12:24.512Z,-1.28
2022-12-05T02:13:26.839Z,-1.56
2022-12-05T02:14:24.522Z,-1.44
2022-12-05T02:15:24.517Z,-1.56
2022-12-05T02:16:24.544Z,-1.56
2022-12-05T02:17:24.549Z,-1.56
2022-12-05T02:18:24.514Z,-1.56
2022-12-05T02:19:24.523Z,-1.44
2022-12-05T02:20:24.520Z,-1.28
2022-12-05T02:21:24.524Z,-1.11
2022-12-05T02:22:24.528Z,-1.28
2022-12-05T02:23:24.535Z,-0.83
2022-12-05T02:24:24.526Z,-0.83
2022-12-05T02:25:24.528Z,-0.83
2022-12-05T02:26:24.524Z,-0.83
2022-12-05T02:27:24.525Z,-1
2022-12-05T02:28:24.530Z,-0.39
2022-12-05T02:29:24.531Z,-0.83
2022-12-05T02:30:24.525Z,-0.67
2022-12-05T02:31:24.603Z,-0.67
2022-12-05T02:32:24.536Z,-1
2022-12-05T02:33:24.561Z,-0.83
2022-12-05T02:34:24.535Z,-0.83
2022-12-05T02:35:24.541Z,-1
2022-12-05T02:36:24.546Z,-0.67
2022-12-05T02:37:24.532Z,-0.39
2022-12-05T02:38:24.541Z,-0.39
2022-12-05T02:39:24.540Z,-0.28
2022-12-05T02:40:24.548Z,-0.39
2022-12-05T02:41:24.541Z,-0.56
2022-12-05T02:42:24.545Z,-0.67
2022-12-05T02:43:24.545Z,-0.83
2022-12-05T02:44:24.548Z,-0.67
2022-12-05T02:45:24.540Z,-0.83
2022-12-05T02:46:24.623Z,-1
2022-12-05T02:47:24.539Z,-0.83
2022-12-05T02:48:24.555Z,-0.83
2022-12-05T02:49:24.584Z,-1.56
2022-12-05T02:50:24.549Z,-1.83
2022-12-05T02:51:24.557Z,-1.83
2022-12-05T02:52:24.550Z,-1.67
2022-12-05T02:53:24.549Z,-1.83
2022-12-05T02:54:24.563Z,-2.17
2022-12-05T02:55:24.557Z,-2
2022-12-05T02:56:24.557Z,-2
2022-12-05T02:57:24.564Z,-1.83
2022-12-05T02:58:24.589Z,-2
2022-12-05T02:59:24.548Z,-1.83
2022-12-05T03:00:24.550Z,-1.83
2022-12-05T03:01:24.596Z,-2
2022-12-05T03:02:24.575Z,-1.67
2022-12-05T03:03:24.554Z,-1.67
2022-12-05T03:04:24.648Z,-1.44
2022-12-05T03:05:24.592Z,-1.56
2022-12-05T03:06:24.567Z,-1.44
2022-12-05T03:07:24.572Z,-1.44
2022-12-05T03:08:24.556Z,-1.44
2022-12-05T03:09:24.560Z,-0.83
2022-12-05T03:10:24.556Z,-0.83
2022-12-05T03:11:24.560Z,-0.83
2022-12-05T03:12:24.558Z,-1
2022-12-05T03:13:24.565Z,-1.28
2022-12-05T03:14:24.565Z,-1.44
2022-12-05T03:15:24.565Z,-1.44
2022-12-05T03:16:24.616Z,-1.56
2022-12-05T03:17:24.568Z,-1.83
2022-12-05T03:18:24.576Z,-2.17
2022-12-05T03:19:24.576Z,-1.67
2022-12-05T03:20:24.568Z,-1.67
2022-12-05T03:21:24.594Z,-1.44
2022-12-05T03:22:24.566Z,-1.44
2022-12-05T03:23:24.566Z,-1.83
2022-12-05T03:24:24.575Z,-1.83
2022-12-05T03:25:24.581Z,-1.28
2022-12-05T03:26:24.592Z,-1.44
2022-12-05T03:27:24.574Z,-1.67
2022-12-05T03:28:24.581Z,-1
2022-12-05T03:29:24.569Z,-0.83
2022-12-05T03:30:24.611Z,-0.83
2022-12-05T03:31:24.644Z,-0.83
2022-12-05T03:32:24.592Z,-0.83
2022-12-05T03:33:24.579Z,-1
2022-12-05T03:34:24.576Z,-1.28
2022-12-05T03:35:24.569Z,-1.11
2022-12-05T03:36:24.576Z,-1.28
2022-12-05T03:37:24.605Z,-1
2022-12-05T03:38:24.574Z,-1.44
2022-12-05T03:39:24.575Z,-1.28
2022-12-05T03:40:24.579Z,-1.28
2022-12-05T03:41:24.578Z,-1.28
2022-12-05T03:42:24.570Z,-1
2022-12-05T03:43:24.584Z,-0.83
2022-12-05T03:44:24.584Z,-0.67
2022-12-05T03:45:24.577Z,-1
2022-12-05T03:46:24.667Z,-0.83
2022-12-05T03:47:24.589Z,-0.56
2022-12-05T03:48:24.574Z,-0.67
2022-12-05T03:49:26.952Z,-0.83
2022-12-05T03:50:24.579Z,-0.83
2022-12-05T03:51:24.575Z,-0.83
2022-12-05T03:52:24.581Z,-0.83
2022-12-05T03:53:24.608Z,-1.28
2022-12-05T03:54:24.580Z,-1.28
2022-12-05T03:55:24.583Z,-1
2022-12-05T03:56:24.586Z,-1.56
2022-12-05T03:57:24.597Z,-0.56
2022-12-05T03:58:24.588Z,-1.11
2022-12-05T03:59:24.591Z,-0.67
2022-12-05T04:00:24.595Z,-0.83
2022-12-05T04:01:24.736Z,-0.67
2022-12-05T04:02:24.595Z,-0.56
2022-12-05T04:03:24.642Z,-1
2022-12-05T04:04:24.599Z,-0.56
2022-12-05T04:05:24.598Z,-0.39
2022-12-05T04:06:24.602Z,-0.28
2022-12-05T04:07:24.596Z,-0.39
2022-12-05T04:08:24.609Z,0
2022-12-05T04:09:24.636Z,0
2022-12-05T04:10:24.603Z,-0.39
2022-12-05T04:11:24.608Z,-0.39
2022-12-05T04:12:24.622Z,-0.39
2022-12-05T04:13:24.608Z,-0.67
2022-12-05T04:14:24.609Z,-0.83
2022-12-05T04:15:24.619Z,-1.11
2022-12-05T04:16:24.701Z,-0.83
2022-12-05T04:17:24.628Z,-1.28
2022-12-05T04:18:24.616Z,-0.83
2022-12-05T04:19:24.624Z,-0.83
2022-12-05T04:20:24.618Z,-1
2022-12-05T04:21:24.631Z,-0.83
2022-12-05T04:22:24.623Z,-0.56
2022-12-05T04:23:24.628Z,-0.67
2022-12-05T04:24:24.623Z,-0.67
2022-12-05T04:25:24.656Z,-0.28
2022-12-05T04:26:24.622Z,-0.39
2022-12-05T04:27:24.638Z,-0.56
2022-12-05T04:28:24.632Z,-0.39
2022-12-05T04:29:24.630Z,-0.17
2022-12-05T04:30:24.638Z,-0.17
2022-12-05T04:31:24.722Z,-0.67
2022-12-05T04:32:24.635Z,-0.56
2022-12-05T04:33:24.637Z,-0.56
2022-12-05T04:34:24.636Z,-1.28
2022-12-05T04:35:24.636Z,-0.56
2022-12-05T04:36:24.638Z,-0.83
2022-12-05T04:37:24.651Z,-1
2022-12-05T04:38:24.654Z,-0.83
2022-12-05T04:39:24.645Z,-1
2022-12-05T04:40:24.649Z,-1
2022-12-05T04:41:24.706Z,-0.83
2022-12-05T04:42:24.649Z,-0.56
2022-12-05T04:43:24.653Z,-1.11
2022-12-05T04:44:24.652Z,-0.83
2022-12-05T04:45:24.657Z,-0.83
2022-12-05T04:46:24.680Z,-1.11
2022-12-05T04:47:24.650Z,-0.56
2022-12-05T04:48:24.649Z,-0.67
2022-12-05T04:49:24.651Z,-0.56
2022-12-05T04:50:24.650Z,-0.28
2022-12-05T04:51:24.661Z,-0.28
2022-12-05T04:52:24.664Z,-0.56
2022-12-05T04:53:24.668Z,-0.39
2022-12-05T04:54:24.665Z,-0.67
2022-12-05T04:55:24.667Z,-0.39
2022-12-05T04:56:24.656Z,-0.67
2022-12-05T04:57:24.695Z,-0.39
2022-12-05T04:58:24.672Z,-0.56
2022-12-05T04:59:24.672Z,-0.39
2022-12-05T05:00:24.670Z,-0.39
2022-12-05T05:01:24.762Z,-0.39
2022-12-05T05:02:24.727Z,-0.39
2022-12-05T05:03:24.678Z,-0.67
2022-12-05T05:04:24.679Z,-0.28
2022-12-05T05:05:24.676Z,-0.39
2022-12-05T05:06:24.676Z,0
2022-12-05T05:07:24.689Z,-0.39
2022-12-05T05:08:24.748Z,-0.28
2022-12-05T05:09:24.692Z,-0.39
2022-12-05T05:10:24.681Z,-0.56
2022-12-05T05:11:24.693Z,-0.28
2022-12-05T05:12:24.699Z,-0.39
2022-12-05T05:13:24.724Z,-0.56
2022-12-05T05:14:24.692Z,-0.39
2022-12-05T05:15:24.692Z,-0.67
2022-12-05T05:16:24.734Z,0
2022-12-05T05:17:24.699Z,-0.17
2022-12-05T05:18:24.697Z,-0.17
2022-12-05T05:19:24.705Z,-0.39
2022-12-05T05:20:24.714Z,-0.56
2022-12-05T05:21:24.700Z,-0.17
2022-12-05T05:22:24.710Z,0
2022-12-05T05:23:24.700Z,0
2022-12-05T05:24:24.717Z,-0.17
2022-12-05T05:25:24.721Z,-0.39
2022-12-05T05:26:24.719Z,-0.56
2022-12-05T05:27:24.725Z,-0.17
2022-12-05T05:28:24.717Z,-0.28
2022-12-05T05:29:24.748Z,-0.39
2022-12-05T05:30:24.721Z,-0.67
2022-12-05T05:31:24.802Z,-0.28
2022-12-05T05:32:24.731Z,-0.28
2022-12-05T05:33:24.726Z,-0.28
2022-12-05T05:34:24.723Z,-0.17
2022-12-05T05:35:24.725Z,0
2022-12-05T05:36:24.724Z,0
2022-12-05T05:37:24.728Z,0
2022-12-05T05:38:24.727Z,0
2022-12-05T05:39:24.729Z,0
2022-12-05T05:40:24.734Z,0
2022-12-05T05:41:24.734Z,-0.39
2022-12-05T05:42:24.739Z,-0.28
2022-12-05T05:43:24.741Z,-0.28
2022-12-05T05:44:24.734Z,-0.39
2022-12-05T05:45:24.765Z,-0.56
2022-12-05T05:46:24.822Z,-0.39
2022-12-05T05:47:24.739Z,-0.39
2022-12-05T05:48:24.742Z,-0.28
2022-12-05T05:49:24.747Z,-0.39
2022-12-05T05:50:24.750Z,-0.39
2022-12-05T05:51:24.750Z,-0.56
2022-12-05T05:52:24.755Z,-0.39
2022-12-05T05:53:24.752Z,-0.39
2022-12-05T05:54:24.759Z,-0.39
2022-12-05T05:55:24.755Z,-0.83
2022-12-05T05:56:24.764Z,-0.39
2022-12-05T05:57:24.755Z,-0.39
2022-12-05T05:58:24.761Z,-0.39
2022-12-05T05:59:24.756Z,-0.39
2022-12-05T06:00:24.765Z,-0.17
2022-12-05T06:01:24.795Z,-0.56
2022-12-05T06:02:24.774Z,-0.17
2022-12-05T06:03:24.939Z,-0.17
2022-12-05T06:04:24.838Z,0
2022-12-05T06:05:24.773Z,0
2022-12-05T06:06:24.776Z,0
2022-12-05T06:07:24.774Z,0.17
2022-12-05T06:08:24.904Z,0.17
2022-12-05T06:09:24.781Z,0
2022-12-05T06:10:24.777Z,0
2022-12-05T06:11:26.883Z,0
2022-12-05T06:12:24.775Z,0
2022-12-05T06:13:24.784Z,-0.17
2022-12-05T06:14:24.778Z,0.17
2022-12-05T06:15:24.773Z,0
2022-12-05T06:16:24.908Z,-0.17
2022-12-05T06:17:24.805Z,-0.17
2022-12-05T06:18:24.784Z,-0.17
2022-12-05T06:19:24.785Z,0.17
2022-12-05T06:20:24.790Z,-0.17
2022-12-05T06:21:24.780Z,0
2022-12-05T06:22:24.792Z,-0.17
2022-12-05T06:23:24.789Z,0
2022-12-05T06:24:24.790Z,0
2022-12-05T06:25:24.823Z,-0.17
2022-12-05T06:26:24.791Z,0
2022-12-05T06:27:24.794Z,0.17
2022-12-05T06:28:24.786Z,-0.17
2022-12-05T06:29:26.239Z,-0.17
2022-12-05T06:30:24.790Z,0.17
2022-12-05T06:31:24.825Z,0
2022-12-05T06:32:24.794Z,-0.28
2022-12-05T06:33:24.819Z,0
2022-12-05T06:34:24.786Z,-0.28
2022-12-05T06:35:24.800Z,-0.28
2022-12-05T06:36:24.796Z,-0.28
2022-12-05T06:37:24.795Z,-0.17
2022-12-05T06:38:24.798Z,-0.17
2022-12-05T06:39:24.794Z,-0.28
2022-12-05T06:40:24.803Z,-0.28
2022-12-05T06:41:24.804Z,0
2022-12-05T06:42:24.800Z,-0.28
2022-12-05T06:43:24.804Z,-0.17
2022-12-05T06:44:24.803Z,-0.17
2022-12-05T06:45:24.807Z,-0.17
2022-12-05T06:46:24.850Z,0
2022-12-05T06:47:24.805Z,-0.17
2022-12-05T06:48:24.809Z,0
2022-12-05T06:49:29.399Z,-0.17
2022-12-05T06:50:24.815Z,0
2022-12-05T06:51:24.820Z,-0.17
2022-12-05T06:52:24.809Z,0
2022-12-05T06:53:24.826Z,0
2022-12-05T06:54:24.808Z,0
2022-12-05T06:55:24.816Z,0
2022-12-05T06:56:24.832Z,-0.17
2022-12-05T06:57:24.818Z,-0.17
2022-12-05T06:58:24.823Z,-0.17
2022-12-05T06:59:24.831Z,0
2022-12-05T07:00:24.831Z,0.17
2022-12-05T07:01:24.884Z,0
2022-12-05T07:02:24.910Z,0.44
2022-12-05T07:03:24.829Z,0.44
2022-12-05T07:04:24.843Z,0.17
2022-12-05T07:05:24.863Z,0.44
2022-12-05T07:06:24.837Z,0.17
2022-12-05T07:07:24.831Z,0.28
2022-12-05T07:08:24.834Z,0
2022-12-05T07:09:24.832Z,0.17
2022-12-05T07:10:24.828Z,0.17
2022-12-05T07:11:24.834Z,0.17
2022-12-05T07:12:24.833Z,-0.28
2022-12-05T07:13:24.841Z,0.17
2022-12-05T07:14:46.807Z,0.44
2022-12-05T07:15:24.832Z,0.44
2022-12-05T07:16:24.895Z,0
2022-12-05T07:17:24.840Z,0.44
2022-12-05T07:18:24.845Z,0.44
2022-12-05T07:19:24.862Z,0.44
2022-12-05T07:20:26.276Z,0.44
2022-12-05T07:21:24.877Z,0.72
2022-12-05T07:22:24.837Z,0.89
2022-12-05T07:23:24.849Z,0.89
2022-12-05T07:24:24.856Z,0.89
2022-12-05T07:25:24.859Z,1.17
2022-12-05T07:26:24.852Z,1.06
2022-12-05T07:27:27.452Z,1.17
2022-12-05T07:28:24.852Z,1.06
2022-12-05T07:29:24.855Z,0.61
2022-12-05T07:30:24.857Z,1.06
2022-12-05T07:31:24.919Z,0.72
2022-12-05T07:32:24.870Z,0.72
2022-12-05T07:33:24.858Z,0.61
2022-12-05T07:34:24.864Z,0.89
2022-12-05T07:35:24.853Z,0.89
2022-12-05T07:36:24.863Z,0.89
2022-12-05T07:37:24.897Z,0.89
2022-12-05T07:38:24.877Z,0.72
2022-12-05T07:39:24.863Z,0.89
2022-12-05T07:40:24.857Z,0.72
2022-12-05T07:41:24.864Z,0.72
2022-12-05T07:42:24.860Z,0.44
2022-12-05T07:43:24.859Z,0.89
2022-12-05T07:44:24.872Z,1.06
2022-12-05T07:45:24.861Z,1.06
2022-12-05T07:46:25.016Z,0.61
2022-12-05T07:47:24.909Z,0.89
2022-12-05T07:48:24.874Z,1.17
2022-12-05T07:49:24.881Z,1.06
2022-12-05T07:50:24.875Z,0.89
2022-12-05T07:51:24.871Z,0.89
2022-12-05T07:52:24.866Z,0.89
2022-12-05T07:53:24.890Z,0.89
2022-12-05T07:54:24.871Z,0.72
2022-12-05T07:55:24.883Z,0.72
2022-12-05T07:56:24.879Z,0.44
2022-12-05T07:57:24.885Z,0.44
2022-12-05T07:58:24.879Z,0.61
2022-12-05T07:59:24.882Z,0.28
2022-12-05T08:00:24.873Z,0.72
2022-12-05T08:01:24.957Z,0.61
2022-12-05T08:02:24.957Z,0.44
2022-12-05T08:03:24.883Z,0.72
2022-12-05T08:04:24.888Z,0.44
2022-12-05T08:05:24.894Z,0.17
2022-12-05T08:06:24.886Z,0.28
2022-12-05T08:07:24.894Z,0.89
2022-12-05T08:08:24.957Z,0.72
2022-12-05T08:09:24.913Z,0.72
2022-12-05T08:10:24.884Z,0.89
2022-12-05T08:11:24.890Z,0.89
2022-12-05T08:12:24.886Z,0.89
2022-12-05T08:13:24.878Z,0.61
2022-12-05T08:14:24.883Z,0.89
2022-12-05T08:15:24.882Z,0.89
2022-12-05T08:16:24.917Z,1.06
2022-12-05T08:17:24.885Z,1.17
2022-12-05T08:18:27.437Z,1.33
2022-12-05T08:19:24.898Z,1.5
2022-12-05T08:20:24.886Z,1.33
2022-12-05T08:21:24.890Z,1.5
2022-12-05T08:22:24.903Z,1.33
2022-12-05T08:23:24.891Z,1.17
2022-12-05T08:24:24.886Z,1.5
2022-12-05T08:25:24.913Z,1.5
2022-12-05T08:26:24.882Z,1.17
2022-12-05T08:27:24.895Z,1.5
2022-12-05T08:28:24.886Z,1.33
2022-12-05T08:29:24.902Z,1.72
2022-12-05T08:30:24.933Z,1.5
2022-12-05T08:31:24.936Z,1.06
2022-12-05T08:32:24.883Z,1.17
2022-12-05T08:33:24.893Z,1.61
2022-12-05T08:34:24.893Z,1.5
2022-12-05T08:35:24.909Z,1.5
2022-12-05T08:36:24.894Z,1.72
2022-12-05T08:37:24.886Z,1.72
2022-12-05T08:38:24.898Z,1.72
2022-12-05T08:39:24.895Z,1.61
2022-12-05T08:40:24.985Z,1.72
2022-12-05T08:41:24.922Z,1.72
2022-12-05T08:42:24.893Z,1.89
2022-12-05T08:43:24.894Z,2
2022-12-05T08:44:24.887Z,2
2022-12-05T08:45:24.901Z,2
2022-12-05T08:46:24.986Z,2
2022-12-05T08:47:24.894Z,2
2022-12-05T08:48:29.147Z,2.28
2022-12-05T08:49:24.903Z,2.17
2022-12-05T08:50:24.902Z,1.72
2022-12-05T08:51:24.901Z,2.44
2022-12-05T08:52:24.900Z,2.61
2022-12-05T08:53:24.905Z,2.17
2022-12-05T08:54:24.909Z,2
2022-12-05T08:55:24.907Z,1.72
2022-12-05T08:56:27.017Z,2.17
2022-12-05T08:57:24.949Z,1.89
2022-12-05T08:58:24.900Z,2.17
2022-12-05T08:59:24.907Z,2.28
2022-12-05T09:00:24.948Z,1.72
2022-12-05T09:01:24.965Z,1.61
2022-12-05T09:02:24.976Z,1.72
2022-12-05T09:03:24.915Z,1.72
2022-12-05T09:04:24.913Z,2
2022-12-05T09:05:29.332Z,1.72
2022-12-05T09:06:24.919Z,1.61
2022-12-05T09:07:24.914Z,1.5
2022-12-05T09:08:24.920Z,1.5
2022-12-05T09:09:24.908Z,1.5
2022-12-05T09:10:24.991Z,1.72
2022-12-05T09:11:24.909Z,1.72
2022-12-05T09:12:24.920Z,1.89
2022-12-05T09:13:24.945Z,2
2022-12-05T09:14:24.921Z,1.72
2022-12-05T09:15:24.956Z,2.17
2022-12-05T09:16:24.968Z,2.17
2022-12-05T09:17:24.918Z,2.61
2022-12-05T09:18:24.927Z,2.17
2022-12-05T09:19:24.940Z,2.28
2022-12-05T09:20:24.931Z,2.28
2022-12-05T09:21:24.920Z,2.44
2022-12-05T09:22:24.938Z,2.44
2022-12-05T09:23:24.925Z,2.61
2022-12-05T09:24:24.923Z,2.44
2022-12-05T09:25:24.926Z,2.61
2022-12-05T09:26:24.935Z,2.61
2022-12-05T09:27:24.954Z,2.61
2022-12-05T09:28:24.934Z,2.28
2022-12-05T09:29:24.951Z,2.61
2022-12-05T09:30:24.923Z,2.61
2022-12-05T09:31:25.071Z,2.61
2022-12-05T09:32:24.930Z,3
2022-12-05T09:33:24.939Z,3.33
2022-12-05T09:34:24.938Z,3.33
2022-12-05T09:35:24.938Z,3.33
2022-12-05T09:36:24.940Z,3.44
2022-12-05T09:37:38.482Z,3.44
2022-12-05T09:38:24.936Z,3.44
2022-12-05T09:39:24.944Z,3.44
2022-12-05T09:40:24.947Z,3.33
2022-12-05T09:41:24.943Z,3.44
2022-12-05T09:42:24.945Z,3.44
2022-12-05T09:43:24.948Z,3.44
2022-12-05T09:44:24.948Z,3.44
2022-12-05T09:45:24.971Z,3.33
2022-12-05T09:46:25.003Z,3.33
2022-12-05T09:47:24.946Z,3.44
2022-12-05T09:48:24.937Z,3.56
2022-12-05T09:49:24.941Z,3.33
2022-12-05T09:50:24.970Z,3.56
2022-12-05T09:51:24.940Z,3.72
2022-12-05T09:52:24.945Z,3.83
2022-12-05T09:53:24.946Z,3.44
2022-12-05T09:54:24.955Z,3.33
2022-12-05T09:55:24.957Z,3.83
2022-12-05T09:56:24.944Z,3.44
2022-12-05T09:57:27.798Z,3.33
2022-12-05T09:58:24.951Z,3.56
2022-12-05T09:59:24.951Z,3.44
2022-12-05T10:00:24.959Z,3.44
2022-12-05T10:01:25.061Z,3.44
2022-12-05T10:02:24.961Z,3.44
2022-12-05T10:03:24.963Z,3.72
2022-12-05T10:04:25.003Z,3.72
2022-12-05T10:05:25.035Z,3.72
2022-12-05T10:06:24.953Z,3.72
2022-12-05T10:07:24.952Z,4
2022-12-05T10:08:25.084Z,4
2022-12-05T10:09:24.959Z,4.17
2022-12-05T10:10:25.014Z,4
2022-12-05T10:11:24.941Z,4
2022-12-05T10:12:24.963Z,4
2022-12-05T10:13:24.955Z,3.72
2022-12-05T10:14:24.972Z,3.44
2022-12-05T10:15:24.971Z,3.56
2022-12-05T10:16:25.046Z,3.56
2022-12-05T10:17:24.978Z,4
2022-12-05T10:18:24.970Z,3.83
2022-12-05T10:19:24.965Z,4.28
2022-12-05T10:20:24.957Z,3.83
2022-12-05T10:21:24.954Z,4.28
2022-12-05T10:22:24.948Z,3.83
2022-12-05T10:23:49.262Z,4.17
2022-12-05T10:24:24.962Z,4
2022-12-05T10:25:24.951Z,4.44
2022-12-05T10:26:24.957Z,4.44
2022-12-05T10:27:24.959Z,4.72
2022-12-05T10:28:24.960Z,4.44
2022-12-05T10:29:24.949Z,4.44
2022-12-05T10:30:24.971Z,4.72
2022-12-05T10:31:25.022Z,4.28
2022-12-05T10:32:24.957Z,4.28
2022-12-05T10:33:24.985Z,4.56
2022-12-05T10:34:24.962Z,4.28
2022-12-05T10:35:24.962Z,4
2022-12-05T10:36:24.960Z,4.28
2022-12-05T10:37:24.962Z,4.44
2022-12-05T10:38:24.964Z,4.56
2022-12-05T10:39:24.968Z,4.17
2022-12-05T10:40:24.968Z,4.44
2022-12-05T10:41:24.971Z,4.72
2022-12-05T10:42:24.964Z,4.89
2022-12-05T10:43:24.968Z,4.56
2022-12-05T10:44:24.963Z,4.72
2022-12-05T10:45:24.966Z,4.72
2022-12-05T10:46:25.046Z,4.72
2022-12-05T10:47:24.963Z,4.72
2022-12-05T10:48:24.969Z,5
2022-12-05T10:49:24.987Z,4.89
2022-12-05T10:50:24.975Z,5
2022-12-05T10:51:24.975Z,5
2022-12-05T10:52:24.957Z,5
2022-12-05T10:53:24.964Z,5.44
2022-12-05T10:54:24.964Z,5
2022-12-05T10:55:24.963Z,5.17
2022-12-05T10:56:32.251Z,5.72
2022-12-05T10:57:24.962Z,5.61
2022-12-05T10:58:24.974Z,5.83
2022-12-05T10:59:24.966Z,6
2022-12-05T11:00:24.986Z,5.83
2022-12-05T11:01:25.015Z,6
2022-12-05T11:02:25.049Z,6
2022-12-05T11:03:24.967Z,5.83
2022-12-05T11:04:24.962Z,6.28
2022-12-05T11:05:25.072Z,6.11
2022-12-05T11:06:24.958Z,6.11
2022-12-05T11:07:24.962Z,6.11
2022-12-05T11:08:41.694Z,6.28
2022-12-05T11:09:24.973Z,6.56
2022-12-05T11:10:26.829Z,6.39
2022-12-05T11:11:24.969Z,5.83
2022-12-05T11:12:24.963Z,5.83
2022-12-05T11:13:24.969Z,5.72
2022-12-05T11:14:24.972Z,5.44
2022-12-05T11:15:24.977Z,5.61
2022-12-05T11:16:25.016Z,5.61
2022-12-05T11:17:24.973Z,5.44
2022-12-05T11:18:24.976Z,5.83
2022-12-05T11:19:24.975Z,5.72
2022-12-05T11:20:24.976Z,5.44
2022-12-05T11:21:24.999Z,6
2022-12-05T11:22:24.979Z,6
2022-12-05T11:23:24.982Z,5.72
2022-12-05T11:24:24.978Z,5.83
2022-12-05T11:25:24.985Z,5.83
2022-12-05T11:26:24.988Z,6
2022-12-05T11:27:24.985Z,6
2022-12-05T11:28:24.988Z,6.28
2022-12-05T11:29:24.988Z,6
2022-12-05T11:30:24.985Z,5.83
2022-12-05T11:31:25.029Z,5.83
2022-12-05T11:32:24.987Z,6.11
2022-12-05T11:33:25.254Z,6.56
2022-12-05T11:34:24.991Z,6.56
2022-12-05T11:35:25.000Z,6.39
2022-12-05T11:36:25.010Z,6.83
2022-12-05T11:37:25.023Z,6.72
2022-12-05T11:38:24.997Z,6.72
2022-12-05T11:39:25.001Z,7
2022-12-05T11:40:28.511Z,6.83
2022-12-05T11:41:25.007Z,6.56
2022-12-05T11:42:25.002Z,6.72
2022-12-05T11:43:25.004Z,6.56
2022-12-05T11:44:25.010Z,6.83
2022-12-05T11:45:25.010Z,6.72
2022-12-05T11:46:26.778Z,6.72
2022-12-05T11:47:25.022Z,7
2022-12-05T11:48:25.008Z,7
2022-12-05T11:49:25.011Z,6.83
2022-12-05T11:50:25.007Z,7.17
2022-12-05T11:51:25.008Z,7.17
2022-12-05T11:52:25.016Z,6.83
2022-12-05T11:53:25.034Z,7.17
2022-12-05T11:54:42.003Z,7.28
2022-12-05T11:55:25.029Z,7
2022-12-05T11:56:25.016Z,6.83
2022-12-05T11:57:25.018Z,6.56
2022-12-05T11:58:25.017Z,6.56
2022-12-05T11:59:25.025Z,6.83
2022-12-05T12:00:25.026Z,6.83
2022-12-05T12:01:25.027Z,6.94
2022-12-05T12:02:25.119Z,7
2022-12-05T12:03:28.533Z,6.67
2022-12-05T12:04:25.027Z,6.78
2022-12-05T12:05:25.037Z,6.78
2022-12-05T12:06:25.043Z,6.94
2022-12-05T12:07:25.023Z,6.78
2022-12-05T12:08:25.067Z,6.78
2022-12-05T12:09:25.057Z,7.11
2022-12-05T12:10:25.045Z,7.11
2022-12-05T12:11:25.031Z,6.94
2022-12-05T12:12:25.036Z,7.22
2022-12-05T12:13:25.040Z,7.39
2022-12-05T12:14:25.039Z,7.5
2022-12-05T12:15:25.033Z,7.5
2022-12-05T12:16:25.089Z,7.39
2022-12-05T12:17:25.038Z,6.94
2022-12-05T12:18:25.050Z,6.94
2022-12-05T12:19:25.036Z,7.11
2022-12-05T12:20:25.045Z,7.5
2022-12-05T12:21:25.099Z,7.11
2022-12-05T12:22:25.037Z,7.22
2022-12-05T12:23:25.048Z,7.11
2022-12-05T12:24:25.036Z,6.78
2022-12-05T12:25:25.141Z,6.78
2022-12-05T12:26:25.040Z,6.94
2022-12-05T12:27:25.039Z,6.94
2022-12-05T12:28:25.047Z,6.94
2022-12-05T12:29:25.047Z,6.94
2022-12-05T12:30:25.052Z,6.94
2022-12-05T12:31:25.127Z,7.11
2022-12-05T12:32:25.057Z,6.94
2022-12-05T12:33:27.282Z,7.22
2022-12-05T12:34:25.046Z,6.94
2022-12-05T12:35:25.057Z,6.94
2022-12-05T12:36:25.045Z,7.11
2022-12-05T12:37:25.053Z,7.11
2022-12-05T12:38:25.061Z,7.22
2022-12-05T12:39:25.057Z,6.94
2022-12-05T12:40:25.050Z,6.5
2022-12-05T12:41:25.170Z,6.5
2022-12-05T12:42:25.050Z,6.22
2022-12-05T12:43:51.971Z,6.5
2022-12-05T12:44:25.064Z,6.67
2022-12-05T12:45:25.115Z,6.22
2022-12-05T12:46:25.107Z,6.22
2022-12-05T12:47:25.573Z,6.22
2022-12-05T12:48:25.068Z,6.5
2022-12-05T12:49:25.062Z,6.39
2022-12-05T12:50:25.077Z,6.06
2022-12-05T12:51:25.060Z,6.22
2022-12-05T12:52:25.063Z,5.67
2022-12-05T12:53:25.063Z,5.94
2022-12-05T12:54:40.324Z,6.06
2022-12-05T12:55:25.066Z,6.06
2022-12-05T12:56:25.072Z,5.67
2022-12-05T12:57:25.096Z,5.78
2022-12-05T12:58:25.065Z,5.67
2022-12-05T12:59:25.077Z,5.78
2022-12-05T13:00:25.065Z,5.78
2022-12-05T13:01:25.241Z,5.78
2022-12-05T13:02:25.184Z,5.78
2022-12-05T13:03:25.074Z,5.78
2022-12-05T13:04:25.073Z,5.56
2022-12-05T13:05:25.075Z,5.78
2022-12-05T13:06:25.079Z,5.67
2022-12-05T13:07:25.066Z,5.39
2022-12-05T13:08:25.206Z,5.39
2022-12-05T13:09:25.077Z,5.67
2022-12-05T13:10:25.087Z,5.56
2022-12-05T13:11:25.064Z,5.67
2022-12-05T13:12:25.077Z,5.94
2022-12-05T13:13:25.107Z,5.56
2022-12-05T13:14:25.064Z,5.78
2022-12-05T13:15:25.069Z,5.67
2022-12-05T13:16:25.108Z,5.67